sensor_id;sensor_type;location;lat;lon;timestamp;temperature;humidity
84916;DHT22;75178;53.054;5.846;2024-03-02T00:02:10;7.80;99.90
84916;DHT22;75178;53.054;5.846;2024-03-02T00:04:54;7.70;99.90
84916;DHT22;75178;53.054;5.846;2024-03-02T00:07:41;7.70;99.90
84916;DHT22;75178;53.054;5.846;2024-03-02T00:10:35;7.70;99.90
84916;DHT22;75178;53.054;5.846;2024-03-02T00:13:20;7.70;99.90
84916;DHT22;75178;53.054;5.846;2024-03-02T00:16:05;7.70;99.90
84916;DHT22;75178;53.054;5.846;2024-03-02T00:18:49;7.70;99.90
84916;DHT22;75178;53.054;5.846;2024-03-02T00:21:33;7.70;99.90
84916;DHT22;75178;53.054;5.846;2024-03-02T00:24:20;7.60;99.90
84916;DHT22;75178;53.054;5.846;2024-03-02T00:27:07;7.60;99.90
84916;DHT22;75178;53.054;5.846;2024-03-02T00:29:51;7.60;99.90
84916;DHT22;75178;53.054;5.846;2024-03-02T00:32:36;7.60;99.90
84916;DHT22;75178;53.054;5.846;2024-03-02T00:35:20;7.60;99.90
84916;DHT22;75178;53.054;5.846;2024-03-02T00:38:07;7.60;99.90
84916;DHT22;75178;53.054;5.846;2024-03-02T00:40:51;7.60;99.90
84916;DHT22;75178;53.054;5.846;2024-03-02T00:43:45;7.60;99.90
84916;DHT22;75178;53.054;5.846;2024-03-02T00:46:33;7.60;99.90
84916;DHT22;75178;53.054;5.846;2024-03-02T00:49:18;7.60;99.90
84916;DHT22;75178;53.054;5.846;2024-03-02T00:52:05;7.60;99.90
84916;DHT22;75178;53.054;5.846;2024-03-02T00:54:51;7.60;99.90
84916;DHT22;75178;53.054;5.846;2024-03-02T00:57:35;7.60;99.90
84916;DHT22;75178;53.054;5.846;2024-03-02T01:00:21;7.60;99.90
84916;DHT22;75178;53.054;5.846;2024-03-02T01:03:05;7.60;99.90
84916;DHT22;75178;53.054;5.846;2024-03-02T01:05:49;7.60;99.90
84916;DHT22;75178;53.054;5.846;2024-03-02T01:08:34;7.60;99.90
84916;DHT22;75178;53.054;5.846;2024-03-02T01:11:18;7.60;99.90
84916;DHT22;75178;53.054;5.846;2024-03-02T01:14:03;7.60;99.90
84916;DHT22;75178;53.054;5.846;2024-03-02T01:16:48;7.70;99.90
84916;DHT22;75178;53.054;5.846;2024-03-02T01:19:33;7.70;99.90
84916;DHT22;75178;53.054;5.846;2024-03-02T01:22:17;7.70;99.90
84916;DHT22;75178;53.054;5.846;2024-03-02T01:25:01;7.80;99.90
84916;DHT22;75178;53.054;5.846;2024-03-02T01:27:45;7.80;99.90
84916;DHT22;75178;53.054;5.846;2024-03-02T01:30:29;7.90;99.90
84916;DHT22;75178;53.054;5.846;2024-03-02T01:33:15;7.90;99.90
84916;DHT22;75178;53.054;5.846;2024-03-02T01:35:59;7.90;99.90
84916;DHT22;75178;53.054;5.846;2024-03-02T01:38:43;7.90;99.90
84916;DHT22;75178;53.054;5.846;2024-03-02T01:41:27;8.00;99.90
84916;DHT22;75178;53.054;5.846;2024-03-02T01:44:11;7.90;99.90
84916;DHT22;75178;53.054;5.846;2024-03-02T01:46:56;7.90;99.90
84916;DHT22;75178;53.054;5.846;2024-03-02T01:49:41;8.00;99.90
84916;DHT22;75178;53.054;5.846;2024-03-02T01:52:26;8.00;99.90
84916;DHT22;75178;53.054;5.846;2024-03-02T01:55:10;8.00;99.90
84916;DHT22;75178;53.054;5.846;2024-03-02T01:57:54;8.10;99.90
84916;DHT22;75178;53.054;5.846;2024-03-02T02:00:39;8.10;99.90
84916;DHT22;75178;53.054;5.846;2024-03-02T02:03:23;8.00;99.90
84916;DHT22;75178;53.054;5.846;2024-03-02T02:06:08;8.00;99.90
84916;DHT22;75178;53.054;5.846;2024-03-02T02:08:52;8.00;99.90
84916;DHT22;75178;53.054;5.846;2024-03-02T02:11:36;8.10;99.90
84916;DHT22;75178;53.054;5.846;2024-03-02T02:14:20;8.10;99.90
84916;DHT22;75178;53.054;5.846;2024-03-02T02:17:05;8.20;99.90
84916;DHT22;75178;53.054;5.846;2024-03-02T02:19:49;8.20;99.90
84916;DHT22;75178;53.054;5.846;2024-03-02T02:22:34;8.30;99.90
84916;DHT22;75178;53.054;5.846;2024-03-02T02:25:18;8.30;99.90
84916;DHT22;75178;53.054;5.846;2024-03-02T02:28:03;8.40;99.90
84916;DHT22;75178;53.054;5.846;2024-03-02T02:30:47;8.40;99.90
84916;DHT22;75178;53.054;5.846;2024-03-02T02:33:31;8.40;99.90
84916;DHT22;75178;53.054;5.846;2024-03-02T02:36:15;8.40;99.90
84916;DHT22;75178;53.054;5.846;2024-03-02T02:39:02;8.40;99.90
84916;DHT22;75178;53.054;5.846;2024-03-02T02:41:47;8.40;99.90
84916;DHT22;75178;53.054;5.846;2024-03-02T02:44:31;8.40;99.90
84916;DHT22;75178;53.054;5.846;2024-03-02T02:47:16;8.40;99.90
84916;DHT22;75178;53.054;5.846;2024-03-02T02:50:00;8.30;99.90
84916;DHT22;75178;53.054;5.846;2024-03-02T02:52:44;8.30;99.90
84916;DHT22;75178;53.054;5.846;2024-03-02T02:55:30;8.30;99.90
84916;DHT22;75178;53.054;5.846;2024-03-02T02:58:14;8.30;99.90
84916;DHT22;75178;53.054;5.846;2024-03-02T03:00:58;8.20;99.90
84916;DHT22;75178;53.054;5.846;2024-03-02T03:03:42;8.20;99.90
84916;DHT22;75178;53.054;5.846;2024-03-02T03:06:27;8.20;99.90
84916;DHT22;75178;53.054;5.846;2024-03-02T03:09:11;8.20;99.90
84916;DHT22;75178;53.054;5.846;2024-03-02T03:11:56;8.20;99.90
84916;DHT22;75178;53.054;5.846;2024-03-02T03:14:40;8.20;99.90
84916;DHT22;75178;53.054;5.846;2024-03-02T03:17:25;8.20;99.90
84916;DHT22;75178;53.054;5.846;2024-03-02T03:20:09;8.20;99.90
84916;DHT22;75178;53.054;5.846;2024-03-02T03:22:54;8.20;99.90
84916;DHT22;75178;53.054;5.846;2024-03-02T03:25:38;8.20;99.90
84916;DHT22;75178;53.054;5.846;2024-03-02T03:28:24;8.20;99.90
84916;DHT22;75178;53.054;5.846;2024-03-02T03:31:08;8.20;99.90
84916;DHT22;75178;53.054;5.846;2024-03-02T03:33:52;8.20;99.90
84916;DHT22;75178;53.054;5.846;2024-03-02T03:36:36;8.20;99.90
84916;DHT22;75178;53.054;5.846;2024-03-02T03:39:21;8.20;99.90
84916;DHT22;75178;53.054;5.846;2024-03-02T03:42:05;8.20;99.90
84916;DHT22;75178;53.054;5.846;2024-03-02T03:44:51;8.20;99.90
84916;DHT22;75178;53.054;5.846;2024-03-02T03:47:35;8.20;99.90
84916;DHT22;75178;53.054;5.846;2024-03-02T03:50:19;8.10;99.90
84916;DHT22;75178;53.054;5.846;2024-03-02T03:53:04;8.10;99.90
84916;DHT22;75178;53.054;5.846;2024-03-02T03:55:48;8.10;99.90
84916;DHT22;75178;53.054;5.846;2024-03-02T03:58:33;8.00;99.90
84916;DHT22;75178;53.054;5.846;2024-03-02T04:01:18;8.00;99.90
84916;DHT22;75178;53.054;5.846;2024-03-02T04:04:03;7.90;99.90
84916;DHT22;75178;53.054;5.846;2024-03-02T04:06:47;7.90;99.90
84916;DHT22;75178;53.054;5.846;2024-03-02T04:09:31;7.90;99.90
84916;DHT22;75178;53.054;5.846;2024-03-02T04:12:15;7.90;99.90
84916;DHT22;75178;53.054;5.846;2024-03-02T04:14:59;7.80;99.90
84916;DHT22;75178;53.054;5.846;2024-03-02T04:17:44;7.80;99.90
84916;DHT22;75178;53.054;5.846;2024-03-02T04:20:29;7.80;99.90
84916;DHT22;75178;53.054;5.846;2024-03-02T04:23:13;7.70;99.90
84916;DHT22;75178;53.054;5.846;2024-03-02T04:25:57;7.70;99.90
84916;DHT22;75178;53.054;5.846;2024-03-02T04:28:41;7.60;99.90
84916;DHT22;75178;53.054;5.846;2024-03-02T04:31:25;7.60;99.90
84916;DHT22;75178;53.054;5.846;2024-03-02T04:34:10;7.50;99.90
84916;DHT22;75178;53.054;5.846;2024-03-02T04:36:55;7.50;99.90
84916;DHT22;75178;53.054;5.846;2024-03-02T04:39:39;7.40;99.90
84916;DHT22;75178;53.054;5.846;2024-03-02T04:42:23;7.40;99.90
84916;DHT22;75178;53.054;5.846;2024-03-02T04:45:07;7.40;99.90
84916;DHT22;75178;53.054;5.846;2024-03-02T04:47:52;7.40;99.90
84916;DHT22;75178;53.054;5.846;2024-03-02T04:50:37;7.30;99.90
84916;DHT22;75178;53.054;5.846;2024-03-02T04:53:21;7.30;99.90
84916;DHT22;75178;53.054;5.846;2024-03-02T04:56:06;7.30;99.90
84916;DHT22;75178;53.054;5.846;2024-03-02T04:58:50;7.30;99.90
84916;DHT22;75178;53.054;5.846;2024-03-02T05:01:34;7.30;99.90
84916;DHT22;75178;53.054;5.846;2024-03-02T05:04:18;7.20;99.90
84916;DHT22;75178;53.054;5.846;2024-03-02T05:07:03;7.10;99.90
84916;DHT22;75178;53.054;5.846;2024-03-02T05:09:48;7.10;99.90
84916;DHT22;75178;53.054;5.846;2024-03-02T05:12:32;7.00;99.90
84916;DHT22;75178;53.054;5.846;2024-03-02T05:15:16;7.00;99.90
84916;DHT22;75178;53.054;5.846;2024-03-02T05:18:01;7.00;99.90
84916;DHT22;75178;53.054;5.846;2024-03-02T05:20:45;6.90;99.90
84916;DHT22;75178;53.054;5.846;2024-03-02T05:23:31;6.90;99.90
84916;DHT22;75178;53.054;5.846;2024-03-02T05:26:15;6.80;99.90
84916;DHT22;75178;53.054;5.846;2024-03-02T05:28:59;6.80;99.90
84916;DHT22;75178;53.054;5.846;2024-03-02T05:31:43;6.70;99.90
84916;DHT22;75178;53.054;5.846;2024-03-02T05:34:27;6.70;99.90
84916;DHT22;75178;53.054;5.846;2024-03-02T05:37:11;6.70;99.90
84916;DHT22;75178;53.054;5.846;2024-03-02T05:39:57;6.70;99.90
84916;DHT22;75178;53.054;5.846;2024-03-02T05:42:41;6.70;99.90
84916;DHT22;75178;53.054;5.846;2024-03-02T05:45:25;6.60;99.90
84916;DHT22;75178;53.054;5.846;2024-03-02T05:48:09;6.60;99.90
84916;DHT22;75178;53.054;5.846;2024-03-02T05:50:54;6.60;99.90
84916;DHT22;75178;53.054;5.846;2024-03-02T05:53:38;6.50;99.90
84916;DHT22;75178;53.054;5.846;2024-03-02T05:56:23;6.40;99.90
84916;DHT22;75178;53.054;5.846;2024-03-02T05:59:07;6.40;99.90
84916;DHT22;75178;53.054;5.846;2024-03-02T06:01:51;6.40;99.90
84916;DHT22;75178;53.054;5.846;2024-03-02T06:04:36;6.30;99.90
84916;DHT22;75178;53.054;5.846;2024-03-02T06:07:20;6.30;99.90
84916;DHT22;75178;53.054;5.846;2024-03-02T06:10:05;6.20;99.90
84916;DHT22;75178;53.054;5.846;2024-03-02T06:12:51;6.20;99.90
84916;DHT22;75178;53.054;5.846;2024-03-02T06:15:35;6.20;99.90
84916;DHT22;75178;53.054;5.846;2024-03-02T06:18:19;6.20;99.90
84916;DHT22;75178;53.054;5.846;2024-03-02T06:21:04;6.10;99.90
84916;DHT22;75178;53.054;5.846;2024-03-02T06:23:48;6.10;99.90
84916;DHT22;75178;53.054;5.846;2024-03-02T06:26:32;6.10;99.90
84916;DHT22;75178;53.054;5.846;2024-03-02T06:29:18;6.00;99.90
84916;DHT22;75178;53.054;5.846;2024-03-02T06:32:02;6.00;99.90
84916;DHT22;75178;53.054;5.846;2024-03-02T06:34:46;6.00;99.90
84916;DHT22;75178;53.054;5.846;2024-03-02T06:37:31;5.90;99.90
84916;DHT22;75178;53.054;5.846;2024-03-02T06:40:15;5.90;99.90
84916;DHT22;75178;53.054;5.846;2024-03-02T06:43:00;5.90;99.90
84916;DHT22;75178;53.054;5.846;2024-03-02T06:45:45;5.90;99.90
84916;DHT22;75178;53.054;5.846;2024-03-02T06:48:29;5.80;99.90
84916;DHT22;75178;53.054;5.846;2024-03-02T06:51:14;5.80;99.90
84916;DHT22;75178;53.054;5.846;2024-03-02T06:53:58;5.80;99.90
84916;DHT22;75178;53.054;5.846;2024-03-02T06:56:42;5.80;99.90
84916;DHT22;75178;53.054;5.846;2024-03-02T06:59:26;5.80;99.90
84916;DHT22;75178;53.054;5.846;2024-03-02T07:02:12;5.70;99.90
84916;DHT22;75178;53.054;5.846;2024-03-02T07:04:56;5.70;99.90
84916;DHT22;75178;53.054;5.846;2024-03-02T07:07:40;5.70;99.90
84916;DHT22;75178;53.054;5.846;2024-03-02T07:10:25;5.60;99.90
84916;DHT22;75178;53.054;5.846;2024-03-02T07:13:09;5.60;99.90
84916;DHT22;75178;53.054;5.846;2024-03-02T07:15:53;5.60;99.90
84916;DHT22;75178;53.054;5.846;2024-03-02T07:18:38;5.60;99.90
84916;DHT22;75178;53.054;5.846;2024-03-02T07:21:23;5.50;99.90
84916;DHT22;75178;53.054;5.846;2024-03-02T07:24:07;5.60;99.90
84916;DHT22;75178;53.054;5.846;2024-03-02T07:26:51;5.60;99.90
84916;DHT22;75178;53.054;5.846;2024-03-02T07:29:36;5.60;99.90
84916;DHT22;75178;53.054;5.846;2024-03-02T07:32:20;5.60;99.90
84916;DHT22;75178;53.054;5.846;2024-03-02T07:35:07;5.60;99.90
84916;DHT22;75178;53.054;5.846;2024-03-02T07:37:51;5.70;99.90
84916;DHT22;75178;53.054;5.846;2024-03-02T07:40:35;5.70;99.90
84916;DHT22;75178;53.054;5.846;2024-03-02T07:43:19;5.80;99.90
84916;DHT22;75178;53.054;5.846;2024-03-02T07:46:04;5.80;99.90
84916;DHT22;75178;53.054;5.846;2024-03-02T07:48:49;5.80;99.90
84916;DHT22;75178;53.054;5.846;2024-03-02T07:51:34;5.80;99.90
84916;DHT22;75178;53.054;5.846;2024-03-02T07:54:18;5.90;99.90
84916;DHT22;75178;53.054;5.846;2024-03-02T07:57:03;6.00;99.90
84916;DHT22;75178;53.054;5.846;2024-03-02T07:59:47;6.00;99.90
84916;DHT22;75178;53.054;5.846;2024-03-02T08:02:31;6.10;99.90
84916;DHT22;75178;53.054;5.846;2024-03-02T08:05:15;6.20;99.90
84916;DHT22;75178;53.054;5.846;2024-03-02T08:08:01;6.20;99.90
84916;DHT22;75178;53.054;5.846;2024-03-02T08:10:45;6.30;99.90
84916;DHT22;75178;53.054;5.846;2024-03-02T08:13:29;6.30;99.90
84916;DHT22;75178;53.054;5.846;2024-03-02T08:16:14;6.50;99.90
84916;DHT22;75178;53.054;5.846;2024-03-02T08:18:59;6.50;99.90
84916;DHT22;75178;53.054;5.846;2024-03-02T08:21:43;6.60;99.90
84916;DHT22;75178;53.054;5.846;2024-03-02T08:24:29;6.60;99.90
84916;DHT22;75178;53.054;5.846;2024-03-02T08:27:13;6.70;99.90
84916;DHT22;75178;53.054;5.846;2024-03-02T08:29:57;6.80;99.90
84916;DHT22;75178;53.054;5.846;2024-03-02T08:32:41;6.80;99.90
84916;DHT22;75178;53.054;5.846;2024-03-02T08:35:26;6.90;99.90
84916;DHT22;75178;53.054;5.846;2024-03-02T08:38:10;7.00;99.90
84916;DHT22;75178;53.054;5.846;2024-03-02T08:40:56;7.00;99.90
84916;DHT22;75178;53.054;5.846;2024-03-02T08:43:41;7.10;99.90
84916;DHT22;75178;53.054;5.846;2024-03-02T08:46:26;7.10;99.90
84916;DHT22;75178;53.054;5.846;2024-03-02T08:49:10;7.20;99.90
84916;DHT22;75178;53.054;5.846;2024-03-02T08:51:54;7.20;99.90
84916;DHT22;75178;53.054;5.846;2024-03-02T08:54:39;7.30;99.90
84916;DHT22;75178;53.054;5.846;2024-03-02T08:57:24;7.30;99.90
84916;DHT22;75178;53.054;5.846;2024-03-02T09:00:09;7.40;99.90
84916;DHT22;75178;53.054;5.846;2024-03-02T09:02:53;7.50;99.90
84916;DHT22;75178;53.054;5.846;2024-03-02T09:05:38;7.50;99.90
84916;DHT22;75178;53.054;5.846;2024-03-02T09:08:22;7.60;99.90
84916;DHT22;75178;53.054;5.846;2024-03-02T09:11:07;7.70;99.90
84916;DHT22;75178;53.054;5.846;2024-03-02T09:13:52;7.80;99.90
84916;DHT22;75178;53.054;5.846;2024-03-02T09:16:37;7.80;99.90
84916;DHT22;75178;53.054;5.846;2024-03-02T09:19:21;7.90;99.90
84916;DHT22;75178;53.054;5.846;2024-03-02T09:22:05;8.00;99.90
84916;DHT22;75178;53.054;5.846;2024-03-02T09:24:50;8.00;99.90
84916;DHT22;75178;53.054;5.846;2024-03-02T09:27:36;8.10;99.90
84916;DHT22;75178;53.054;5.846;2024-03-02T09:30:22;8.20;99.90
84916;DHT22;75178;53.054;5.846;2024-03-02T09:33:06;8.20;99.90
84916;DHT22;75178;53.054;5.846;2024-03-02T09:35:50;8.30;99.90
84916;DHT22;75178;53.054;5.846;2024-03-02T09:38:34;8.40;99.90
84916;DHT22;75178;53.054;5.846;2024-03-02T09:41:19;8.50;99.90
84916;DHT22;75178;53.054;5.846;2024-03-02T09:44:04;8.60;99.90
84916;DHT22;75178;53.054;5.846;2024-03-02T09:46:50;8.70;99.90
84916;DHT22;75178;53.054;5.846;2024-03-02T09:49:35;8.70;99.90
84916;DHT22;75178;53.054;5.846;2024-03-02T09:52:19;8.80;99.90
84916;DHT22;75178;53.054;5.846;2024-03-02T09:55:04;8.90;99.90
84916;DHT22;75178;53.054;5.846;2024-03-02T09:57:49;9.00;99.90
84916;DHT22;75178;53.054;5.846;2024-03-02T10:00:33;9.00;99.90
84916;DHT22;75178;53.054;5.846;2024-03-02T10:03:19;9.00;99.90
84916;DHT22;75178;53.054;5.846;2024-03-02T10:06:19;9.00;99.90
84916;DHT22;75178;53.054;5.846;2024-03-02T10:09:03;9.10;99.90
84916;DHT22;75178;53.054;5.846;2024-03-02T10:11:47;9.20;99.90
84916;DHT22;75178;53.054;5.846;2024-03-02T10:14:31;9.20;99.90
84916;DHT22;75178;53.054;5.846;2024-03-02T10:17:20;9.30;99.90
84916;DHT22;75178;53.054;5.846;2024-03-02T10:20:25;9.30;99.90
84916;DHT22;75178;53.054;5.846;2024-03-02T10:23:11;9.30;99.90
84916;DHT22;75178;53.054;5.846;2024-03-02T10:25:55;9.40;99.90
84916;DHT22;75178;53.054;5.846;2024-03-02T10:28:46;9.50;99.90
84916;DHT22;75178;53.054;5.846;2024-03-02T10:31:30;9.50;99.90
84916;DHT22;75178;53.054;5.846;2024-03-02T10:34:14;9.50;99.90
84916;DHT22;75178;53.054;5.846;2024-03-02T10:37:00;9.60;99.90
84916;DHT22;75178;53.054;5.846;2024-03-02T10:39:46;9.60;99.90
84916;DHT22;75178;53.054;5.846;2024-03-02T10:42:30;9.60;99.90
84916;DHT22;75178;53.054;5.846;2024-03-02T10:45:16;9.80;99.90
84916;DHT22;75178;53.054;5.846;2024-03-02T10:48:02;9.80;99.90
84916;DHT22;75178;53.054;5.846;2024-03-02T10:50:46;9.80;99.90
84916;DHT22;75178;53.054;5.846;2024-03-02T10:53:32;9.80;99.90
84916;DHT22;75178;53.054;5.846;2024-03-02T10:56:22;9.90;99.90
84916;DHT22;75178;53.054;5.846;2024-03-02T10:59:17;10.00;99.90
84916;DHT22;75178;53.054;5.846;2024-03-02T11:02:07;10.00;99.90
84916;DHT22;75178;53.054;5.846;2024-03-02T11:04:55;10.10;99.90
84916;DHT22;75178;53.054;5.846;2024-03-02T11:07:40;10.20;99.90
84916;DHT22;75178;53.054;5.846;2024-03-02T11:10:27;10.20;99.90
84916;DHT22;75178;53.054;5.846;2024-03-02T11:13:12;10.30;99.90
84916;DHT22;75178;53.054;5.846;2024-03-02T11:16:02;10.40;99.90
84916;DHT22;75178;53.054;5.846;2024-03-02T11:18:48;10.50;99.90
84916;DHT22;75178;53.054;5.846;2024-03-02T11:21:32;10.50;99.90
84916;DHT22;75178;53.054;5.846;2024-03-02T11:24:31;10.60;99.90
84916;DHT22;75178;53.054;5.846;2024-03-02T11:30:53;10.60;99.90
84916;DHT22;75178;53.054;5.846;2024-03-02T11:33:37;10.70;99.90
84916;DHT22;75178;53.054;5.846;2024-03-02T11:36:22;10.80;99.90
84916;DHT22;75178;53.054;5.846;2024-03-02T11:39:06;10.80;99.90
84916;DHT22;75178;53.054;5.846;2024-03-02T11:41:51;10.80;99.90
84916;DHT22;75178;53.054;5.846;2024-03-02T11:44:35;10.90;99.90
84916;DHT22;75178;53.054;5.846;2024-03-02T11:47:21;11.00;99.90
84916;DHT22;75178;53.054;5.846;2024-03-02T11:50:06;11.00;99.90
84916;DHT22;75178;53.054;5.846;2024-03-02T11:52:51;11.00;99.90
84916;DHT22;75178;53.054;5.846;2024-03-02T11:55:36;11.00;99.90
84916;DHT22;75178;53.054;5.846;2024-03-02T11:58:20;11.10;99.90
84916;DHT22;75178;53.054;5.846;2024-03-02T12:01:04;11.20;99.90
84916;DHT22;75178;53.054;5.846;2024-03-02T12:03:51;11.30;99.90
84916;DHT22;75178;53.054;5.846;2024-03-02T12:06:35;11.30;99.90
84916;DHT22;75178;53.054;5.846;2024-03-02T12:09:20;11.30;99.90
84916;DHT22;75178;53.054;5.846;2024-03-02T12:12:06;11.40;99.90
84916;DHT22;75178;53.054;5.846;2024-03-02T12:14:51;11.40;99.90
84916;DHT22;75178;53.054;5.846;2024-03-02T12:17:35;11.40;99.90
84916;DHT22;75178;53.054;5.846;2024-03-02T12:20:21;11.40;99.90
84916;DHT22;75178;53.054;5.846;2024-03-02T12:23:05;11.40;99.90
84916;DHT22;75178;53.054;5.846;2024-03-02T12:25:50;11.50;99.90
84916;DHT22;75178;53.054;5.846;2024-03-02T12:28:34;11.50;99.90
84916;DHT22;75178;53.054;5.846;2024-03-02T12:31:19;11.50;99.90
84916;DHT22;75178;53.054;5.846;2024-03-02T12:34:03;11.60;99.90
84916;DHT22;75178;53.054;5.846;2024-03-02T12:36:50;11.60;99.90
84916;DHT22;75178;53.054;5.846;2024-03-02T12:39:34;11.60;99.90
84916;DHT22;75178;53.054;5.846;2024-03-02T12:42:18;11.60;99.90
84916;DHT22;75178;53.054;5.846;2024-03-02T12:45:02;11.70;99.90
84916;DHT22;75178;53.054;5.846;2024-03-02T12:47:47;11.70;99.90
84916;DHT22;75178;53.054;5.846;2024-03-02T12:50:32;11.70;99.90
84916;DHT22;75178;53.054;5.846;2024-03-02T12:53:18;11.80;99.90
84916;DHT22;75178;53.054;5.846;2024-03-02T12:56:03;11.90;99.90
84916;DHT22;75178;53.054;5.846;2024-03-02T12:58:47;11.90;99.90
84916;DHT22;75178;53.054;5.846;2024-03-02T13:01:32;11.90;99.90
84916;DHT22;75178;53.054;5.846;2024-03-02T13:04:16;11.90;99.90
84916;DHT22;75178;53.054;5.846;2024-03-02T13:07:00;11.90;99.90
84916;DHT22;75178;53.054;5.846;2024-03-02T13:09:46;11.90;99.90
84916;DHT22;75178;53.054;5.846;2024-03-02T13:12:31;12.00;99.90
84916;DHT22;75178;53.054;5.846;2024-03-02T13:15:15;11.90;99.90
84916;DHT22;75178;53.054;5.846;2024-03-02T13:18:00;11.90;99.90
84916;DHT22;75178;53.054;5.846;2024-03-02T13:20:44;11.90;99.90
84916;DHT22;75178;53.054;5.846;2024-03-02T13:23:28;11.90;99.90
84916;DHT22;75178;53.054;5.846;2024-03-02T13:26:14;11.90;99.90
84916;DHT22;75178;53.054;5.846;2024-03-02T13:28:59;11.90;99.90
84916;DHT22;75178;53.054;5.846;2024-03-02T13:31:49;11.90;99.90
84916;DHT22;75178;53.054;5.846;2024-03-02T13:37:37;11.90;99.90
84916;DHT22;75178;53.054;5.846;2024-03-02T13:40:25;12.00;99.90
84916;DHT22;75178;53.054;5.846;2024-03-02T13:43:15;12.00;99.90
84916;DHT22;75178;53.054;5.846;2024-03-02T13:46:00;12.10;99.90
84916;DHT22;75178;53.054;5.846;2024-03-02T13:48:45;12.10;99.90
84916;DHT22;75178;53.054;5.846;2024-03-02T13:51:30;12.10;99.90
84916;DHT22;75178;53.054;5.846;2024-03-02T13:54:14;12.10;99.90
84916;DHT22;75178;53.054;5.846;2024-03-02T13:59:59;12.20;99.90
84916;DHT22;75178;53.054;5.846;2024-03-02T14:02:46;12.30;99.90
84916;DHT22;75178;53.054;5.846;2024-03-02T14:08:37;12.40;99.90
84916;DHT22;75178;53.054;5.846;2024-03-02T14:11:21;12.50;99.90
84916;DHT22;75178;53.054;5.846;2024-03-02T14:14:16;12.50;99.90
84916;DHT22;75178;53.054;5.846;2024-03-02T14:17:17;12.50;99.90
84916;DHT22;75178;53.054;5.846;2024-03-02T14:20:01;12.50;99.90
84916;DHT22;75178;53.054;5.846;2024-03-02T14:22:45;12.50;99.90
84916;DHT22;75178;53.054;5.846;2024-03-02T14:25:29;12.50;99.90
84916;DHT22;75178;53.054;5.846;2024-03-02T14:28:14;12.40;99.90
84916;DHT22;75178;53.054;5.846;2024-03-02T14:30:58;12.40;99.90
84916;DHT22;75178;53.054;5.846;2024-03-02T14:33:43;12.40;99.90
84916;DHT22;75178;53.054;5.846;2024-03-02T14:36:27;12.40;99.90
84916;DHT22;75178;53.054;5.846;2024-03-02T14:39:11;12.40;99.90
84916;DHT22;75178;53.054;5.846;2024-03-02T14:41:56;12.40;99.90
84916;DHT22;75178;53.054;5.846;2024-03-02T14:44:40;12.40;99.90
84916;DHT22;75178;53.054;5.846;2024-03-02T14:47:24;12.30;99.90
84916;DHT22;75178;53.054;5.846;2024-03-02T14:50:10;12.30;99.90
84916;DHT22;75178;53.054;5.846;2024-03-02T14:53:02;12.20;99.90
84916;DHT22;75178;53.054;5.846;2024-03-02T14:55:47;12.20;99.90
84916;DHT22;75178;53.054;5.846;2024-03-02T14:58:31;12.10;99.90
84916;DHT22;75178;53.054;5.846;2024-03-02T15:01:15;12.00;99.90
84916;DHT22;75178;53.054;5.846;2024-03-02T15:03:59;11.90;99.90
84916;DHT22;75178;53.054;5.846;2024-03-02T15:06:45;11.90;99.90
84916;DHT22;75178;53.054;5.846;2024-03-02T15:09:29;12.00;99.90
84916;DHT22;75178;53.054;5.846;2024-03-02T15:12:14;11.90;99.90
84916;DHT22;75178;53.054;5.846;2024-03-02T15:14:58;11.90;99.90
84916;DHT22;75178;53.054;5.846;2024-03-02T15:17:42;11.80;99.90
84916;DHT22;75178;53.054;5.846;2024-03-02T15:20:26;11.70;99.90
84916;DHT22;75178;53.054;5.846;2024-03-02T15:23:12;11.60;99.90
84916;DHT22;75178;53.054;5.846;2024-03-02T15:25:56;11.60;99.90
84916;DHT22;75178;53.054;5.846;2024-03-02T15:28:40;11.50;99.90
84916;DHT22;75178;53.054;5.846;2024-03-02T15:31:24;11.50;99.90
84916;DHT22;75178;53.054;5.846;2024-03-02T15:34:08;11.50;99.90
84916;DHT22;75178;53.054;5.846;2024-03-02T15:36:52;11.50;99.90
84916;DHT22;75178;53.054;5.846;2024-03-02T15:39:38;11.50;99.90
84916;DHT22;75178;53.054;5.846;2024-03-02T15:42:22;11.50;99.90
84916;DHT22;75178;53.054;5.846;2024-03-02T15:45:07;11.50;99.90
84916;DHT22;75178;53.054;5.846;2024-03-02T15:47:51;11.50;99.90
84916;DHT22;75178;53.054;5.846;2024-03-02T15:50:35;11.50;99.90
84916;DHT22;75178;53.054;5.846;2024-03-02T15:53:19;11.40;99.90
84916;DHT22;75178;53.054;5.846;2024-03-02T15:56:05;11.40;99.90
84916;DHT22;75178;53.054;5.846;2024-03-02T15:58:49;11.40;99.90
84916;DHT22;75178;53.054;5.846;2024-03-02T16:01:33;11.40;99.90
84916;DHT22;75178;53.054;5.846;2024-03-02T16:04:18;11.30;99.90
84916;DHT22;75178;53.054;5.846;2024-03-02T16:07:02;11.30;99.90
84916;DHT22;75178;53.054;5.846;2024-03-02T16:09:46;11.30;99.90
84916;DHT22;75178;53.054;5.846;2024-03-02T16:12:32;11.30;99.90
84916;DHT22;75178;53.054;5.846;2024-03-02T16:15:16;11.30;99.90
84916;DHT22;75178;53.054;5.846;2024-03-02T16:18:00;11.30;99.90
84916;DHT22;75178;53.054;5.846;2024-03-02T16:20:45;11.30;99.90
84916;DHT22;75178;53.054;5.846;2024-03-02T16:26:51;11.30;99.90
84916;DHT22;75178;53.054;5.846;2024-03-02T16:29:37;11.20;99.90
84916;DHT22;75178;53.054;5.846;2024-03-02T16:32:21;11.20;99.90
84916;DHT22;75178;53.054;5.846;2024-03-02T16:35:06;11.10;99.90
84916;DHT22;75178;53.054;5.846;2024-03-02T16:37:50;11.10;99.90
84916;DHT22;75178;53.054;5.846;2024-03-02T16:40:34;11.10;99.90
84916;DHT22;75178;53.054;5.846;2024-03-02T16:43:18;11.00;99.90
84916;DHT22;75178;53.054;5.846;2024-03-02T16:46:04;10.90;99.90
84916;DHT22;75178;53.054;5.846;2024-03-02T16:48:48;10.90;99.90
84916;DHT22;75178;53.054;5.846;2024-03-02T16:51:38;10.90;99.90
84916;DHT22;75178;53.054;5.846;2024-03-02T16:54:22;10.80;99.90
84916;DHT22;75178;53.054;5.846;2024-03-02T16:57:07;10.80;99.90
84916;DHT22;75178;53.054;5.846;2024-03-02T16:59:51;10.70;99.90
84916;DHT22;75178;53.054;5.846;2024-03-02T17:02:36;10.60;99.90
84916;DHT22;75178;53.054;5.846;2024-03-02T17:05:21;10.60;99.90
84916;DHT22;75178;53.054;5.846;2024-03-02T17:08:05;10.50;99.90
84916;DHT22;75178;53.054;5.846;2024-03-02T17:10:49;10.50;99.90
84916;DHT22;75178;53.054;5.846;2024-03-02T17:13:34;10.40;99.90
84916;DHT22;75178;53.054;5.846;2024-03-02T17:16:18;10.40;99.90
84916;DHT22;75178;53.054;5.846;2024-03-02T17:19:03;10.30;99.90
84916;DHT22;75178;53.054;5.846;2024-03-02T17:21:47;10.30;99.90
84916;DHT22;75178;53.054;5.846;2024-03-02T17:24:31;10.30;99.90
84916;DHT22;75178;53.054;5.846;2024-03-02T17:27:16;10.20;99.90
84916;DHT22;75178;53.054;5.846;2024-03-02T17:30:00;10.20;99.90
84916;DHT22;75178;53.054;5.846;2024-03-02T17:32:54;10.20;99.90
84916;DHT22;75178;53.054;5.846;2024-03-02T17:35:39;10.10;99.90
84916;DHT22;75178;53.054;5.846;2024-03-02T17:38:23;10.10;99.90
84916;DHT22;75178;53.054;5.846;2024-03-02T17:41:08;10.00;99.90
84916;DHT22;75178;53.054;5.846;2024-03-02T17:43:52;10.00;99.90
84916;DHT22;75178;53.054;5.846;2024-03-02T17:46:36;9.90;99.90
84916;DHT22;75178;53.054;5.846;2024-03-02T17:49:20;9.90;99.90